sensor_id;sensor_type;location;lat;lon;timestamp;P1;durP1;ratioP1;P2;durP2;ratioP2
10596;SDS011;5346;48.766;8.674;2023-05-14T00:00:51;6.25;;;5.65;;
10596;SDS011;5346;48.766;8.674;2023-05-14T00:03:19;6.63;;;5.55;;
10596;SDS011;5346;48.766;8.674;2023-05-14T00:05:55;5.97;;;5.38;;
10596;SDS011;5346;48.766;8.674;2023-05-14T00:08:30;5.82;;;5.22;;
10596;SDS011;5346;48.766;8.674;2023-05-14T00:11:05;5.77;;;5.17;;
10596;SDS011;5346;48.766;8.674;2023-05-14T00:13:35;5.93;;;5.05;;
10596;SDS011;5346;48.766;8.674;2023-05-14T00:16:10;6.32;;;5.57;;
10596;SDS011;5346;48.766;8.674;2023-05-14T00:18:37;6.60;;;5.93;;
10596;SDS011;5346;48.766;8.674;2023-05-14T00:21:11;7.70;;;6.18;;
10596;SDS011;5346;48.766;8.674;2023-05-14T00:23:38;6.10;;;5.05;;
10596;SDS011;5346;48.766;8.674;2023-05-14T00:26:12;7.57;;;5.97;;
10596;SDS011;5346;48.766;8.674;2023-05-14T00:28:47;8.17;;;5.90;;
10596;SDS011;5346;48.766;8.674;2023-05-14T00:31:21;7.33;;;6.17;;
10596;SDS011;5346;48.766;8.674;2023-05-14T00:33:48;9.23;;;6.20;;
10596;SDS011;5346;48.766;8.674;2023-05-14T00:36:22;8.13;;;5.80;;
10596;SDS011;5346;48.766;8.674;2023-05-14T00:38:56;7.20;;;6.50;;
10596;SDS011;5346;48.766;8.674;2023-05-14T00:41:32;7.87;;;6.43;;
10596;SDS011;5346;48.766;8.674;2023-05-14T00:43:59;8.60;;;6.30;;
10596;SDS011;5346;48.766;8.674;2023-05-14T00:46:33;6.90;;;6.20;;
10596;SDS011;5346;48.766;8.674;2023-05-14T00:49:02;8.53;;;6.40;;
10596;SDS011;5346;48.766;8.674;2023-05-14T00:51:36;6.80;;;6.07;;
10596;SDS011;5346;48.766;8.674;2023-05-14T00:54:15;7.80;;;6.40;;
10596;SDS011;5346;48.766;8.674;2023-05-14T00:56:49;8.07;;;6.60;;
10596;SDS011;5346;48.766;8.674;2023-05-14T00:59:16;8.50;;;6.57;;
10596;SDS011;5346;48.766;8.674;2023-05-14T01:01:59;8.17;;;7.00;;
10596;SDS011;5346;48.766;8.674;2023-05-14T01:04:39;7.88;;;7.07;;
10596;SDS011;5346;48.766;8.674;2023-05-14T01:10:12;10.40;;;7.27;;
10596;SDS011;5346;48.766;8.674;2023-05-14T01:15:55;8.47;;;7.57;;
10596;SDS011;5346;48.766;8.674;2023-05-14T01:18:30;10.77;;;8.00;;
10596;SDS011;5346;48.766;8.674;2023-05-14T01:21:17;11.47;;;8.40;;
10596;SDS011;5346;48.766;8.674;2023-05-14T01:24:06;9.87;;;8.53;;
10596;SDS011;5346;48.766;8.674;2023-05-14T01:26:40;10.90;;;7.83;;
10596;SDS011;5346;48.766;8.674;2023-05-14T01:32:00;10.40;;;9.30;;
10596;SDS011;5346;48.766;8.674;2023-05-14T01:34:34;12.57;;;9.40;;
10596;SDS011;5346;48.766;8.674;2023-05-14T01:37:10;12.83;;;10.47;;
10596;SDS011;5346;48.766;8.674;2023-05-14T01:39:39;12.23;;;10.33;;
10596;SDS011;5346;48.766;8.674;2023-05-14T01:42:14;11.67;;;9.83;;
10596;SDS011;5346;48.766;8.674;2023-05-14T01:44:48;14.73;;;11.17;;
10596;SDS011;5346;48.766;8.674;2023-05-14T01:47:22;11.93;;;9.90;;
10596;SDS011;5346;48.766;8.674;2023-05-14T01:49:56;17.23;;;10.23;;
10596;SDS011;5346;48.766;8.674;2023-05-14T01:52:23;11.60;;;9.93;;
10596;SDS011;5346;48.766;8.674;2023-05-14T01:55:05;10.40;;;8.53;;
10596;SDS011;5346;48.766;8.674;2023-05-14T01:57:39;9.00;;;8.00;;
10596;SDS011;5346;48.766;8.674;2023-05-14T02:00:13;12.57;;;8.87;;
10596;SDS011;5346;48.766;8.674;2023-05-14T02:02:41;13.00;;;9.37;;
10596;SDS011;5346;48.766;8.674;2023-05-14T02:05:15;10.83;;;8.67;;
10596;SDS011;5346;48.766;8.674;2023-05-14T02:07:56;11.87;;;8.93;;
10596;SDS011;5346;48.766;8.674;2023-05-14T02:10:30;9.57;;;8.43;;
10596;SDS011;5346;48.766;8.674;2023-05-14T02:13:04;11.13;;;8.97;;
10596;SDS011;5346;48.766;8.674;2023-05-14T02:15:38;12.57;;;9.83;;
10596;SDS011;5346;48.766;8.674;2023-05-14T02:18:12;11.10;;;9.82;;
10596;SDS011;5346;48.766;8.674;2023-05-14T02:20:39;14.13;;;9.77;;
10596;SDS011;5346;48.766;8.674;2023-05-14T02:23:13;14.03;;;11.27;;
10596;SDS011;5346;48.766;8.674;2023-05-14T02:25:40;13.33;;;11.13;;
10596;SDS011;5346;48.766;8.674;2023-05-14T02:28:14;12.60;;;10.00;;
10596;SDS011;5346;48.766;8.674;2023-05-14T02:30:41;11.98;;;9.38;;
10596;SDS011;5346;48.766;8.674;2023-05-14T02:33:15;11.87;;;9.73;;
10596;SDS011;5346;48.766;8.674;2023-05-14T02:35:42;13.90;;;10.93;;
10596;SDS011;5346;48.766;8.674;2023-05-14T02:38:16;17.48;;;11.40;;
10596;SDS011;5346;48.766;8.674;2023-05-14T02:40:50;12.60;;;10.23;;
10596;SDS011;5346;48.766;8.674;2023-05-14T02:43:24;17.13;;;11.75;;
10596;SDS011;5346;48.766;8.674;2023-05-14T02:45:58;13.55;;;11.07;;
10596;SDS011;5346;48.766;8.674;2023-05-14T02:48:32;13.38;;;10.82;;
10596;SDS011;5346;48.766;8.674;2023-05-14T02:51:06;17.67;;;10.87;;
10596;SDS011;5346;48.766;8.674;2023-05-14T02:53:33;13.18;;;10.10;;
10596;SDS011;5346;48.766;8.674;2023-05-14T02:56:07;11.33;;;9.93;;
10596;SDS011;5346;48.766;8.674;2023-05-14T02:58:35;15.27;;;9.40;;
10596;SDS011;5346;48.766;8.674;2023-05-14T03:01:09;13.37;;;10.13;;
10596;SDS011;5346;48.766;8.674;2023-05-14T03:03:50;10.70;;;9.60;;
10596;SDS011;5346;48.766;8.674;2023-05-14T03:06:23;11.07;;;9.13;;
10596;SDS011;5346;48.766;8.674;2023-05-14T03:08:50;9.93;;;8.77;;
10596;SDS011;5346;48.766;8.674;2023-05-14T03:11:24;13.30;;;11.02;;
10596;SDS011;5346;48.766;8.674;2023-05-14T03:13:51;12.80;;;9.50;;
10596;SDS011;5346;48.766;8.674;2023-05-14T03:16:18;12.17;;;10.70;;
10596;SDS011;5346;48.766;8.674;2023-05-14T03:18:52;14.53;;;10.30;;
10596;SDS011;5346;48.766;8.674;2023-05-14T03:21:19;11.10;;;9.13;;
10596;SDS011;5346;48.766;8.674;2023-05-14T03:23:53;11.80;;;9.87;;
10596;SDS011;5346;48.766;8.674;2023-05-14T03:26:20;14.87;;;9.87;;
10596;SDS011;5346;48.766;8.674;2023-05-14T03:28:56;13.60;;;9.93;;
10596;SDS011;5346;48.766;8.674;2023-05-14T03:31:23;13.60;;;9.53;;
10596;SDS011;5346;48.766;8.674;2023-05-14T03:33:57;13.60;;;9.98;;
10596;SDS011;5346;48.766;8.674;2023-05-14T03:36:31;11.07;;;9.90;;
10596;SDS011;5346;48.766;8.674;2023-05-14T03:39:05;11.47;;;9.50;;
10596;SDS011;5346;48.766;8.674;2023-05-14T03:41:39;12.97;;;9.70;;
10596;SDS011;5346;48.766;8.674;2023-05-14T03:44:06;9.87;;;8.37;;
10596;SDS011;5346;48.766;8.674;2023-05-14T03:46:33;9.73;;;8.70;;
10596;SDS011;5346;48.766;8.674;2023-05-14T03:49:07;9.98;;;8.30;;
10596;SDS011;5346;48.766;8.674;2023-05-14T03:51:34;10.73;;;8.60;;
10596;SDS011;5346;48.766;8.674;2023-05-14T03:54:08;12.25;;;8.85;;
10596;SDS011;5346;48.766;8.674;2023-05-14T03:56:35;10.38;;;8.27;;
10596;SDS011;5346;48.766;8.674;2023-05-14T03:59:09;10.70;;;8.57;;
10596;SDS011;5346;48.766;8.674;2023-05-14T04:01:36;9.80;;;7.87;;
10596;SDS011;5346;48.766;8.674;2023-05-14T04:04:10;10.18;;;8.40;;
10596;SDS011;5346;48.766;8.674;2023-05-14T04:06:58;10.37;;;8.40;;
10596;SDS011;5346;48.766;8.674;2023-05-14T04:09:25;10.67;;;8.70;;
10596;SDS011;5346;48.766;8.674;2023-05-14T04:11:58;10.38;;;8.18;;
10596;SDS011;5346;48.766;8.674;2023-05-14T04:14:32;13.53;;;8.93;;
10596;SDS011;5346;48.766;8.674;2023-05-14T04:17:06;11.35;;;9.63;;
10596;SDS011;5346;48.766;8.674;2023-05-14T04:19:33;13.95;;;11.60;;
10596;SDS011;5346;48.766;8.674;2023-05-14T04:22:00;16.90;;;12.27;;
10596;SDS011;5346;48.766;8.674;2023-05-14T04:24:34;16.00;;;11.38;;
10596;SDS011;5346;48.766;8.674;2023-05-14T04:27:01;14.80;;;12.02;;
10596;SDS011;5346;48.766;8.674;2023-05-14T04:29:35;15.60;;;12.47;;
10596;SDS011;5346;48.766;8.674;2023-05-14T04:32:02;17.65;;;11.98;;
10596;SDS011;5346;48.766;8.674;2023-05-14T04:34:30;15.30;;;12.93;;
10596;SDS011;5346;48.766;8.674;2023-05-14T04:37:04;14.53;;;12.03;;
10596;SDS011;5346;48.766;8.674;2023-05-14T04:39:38;15.10;;;11.20;;
10596;SDS011;5346;48.766;8.674;2023-05-14T04:42:05;11.88;;;10.43;;
10596;SDS011;5346;48.766;8.674;2023-05-14T04:44:33;16.15;;;11.60;;
10596;SDS011;5346;48.766;8.674;2023-05-14T04:47:08;15.60;;;11.27;;
10596;SDS011;5346;48.766;8.674;2023-05-14T04:49:35;15.48;;;12.05;;
10596;SDS011;5346;48.766;8.674;2023-05-14T04:52:09;19.27;;;11.98;;
10596;SDS011;5346;48.766;8.674;2023-05-14T04:54:43;15.38;;;12.13;;
10596;SDS011;5346;48.766;8.674;2023-05-14T04:57:11;15.95;;;12.35;;
10596;SDS011;5346;48.766;8.674;2023-05-14T04:59:44;14.32;;;11.50;;
10596;SDS011;5346;48.766;8.674;2023-05-14T05:02:11;15.45;;;11.95;;
10596;SDS011;5346;48.766;8.674;2023-05-14T05:04:45;14.52;;;11.93;;
10596;SDS011;5346;48.766;8.674;2023-05-14T05:07:27;14.73;;;11.50;;
10596;SDS011;5346;48.766;8.674;2023-05-14T05:10:01;14.45;;;11.65;;
10596;SDS011;5346;48.766;8.674;2023-05-14T05:12:29;13.75;;;11.18;;
10596;SDS011;5346;48.766;8.674;2023-05-14T05:15:03;12.93;;;11.07;;
10596;SDS011;5346;48.766;8.674;2023-05-14T05:17:30;14.70;;;10.57;;
10596;SDS011;5346;48.766;8.674;2023-05-14T05:19:58;14.85;;;11.25;;
10596;SDS011;5346;48.766;8.674;2023-05-14T05:22:31;14.85;;;11.13;;
10596;SDS011;5346;48.766;8.674;2023-05-14T05:24:59;11.05;;;9.85;;
10596;SDS011;5346;48.766;8.674;2023-05-14T05:27:32;12.70;;;10.77;;
10596;SDS011;5346;48.766;8.674;2023-05-14T05:30:00;13.23;;;10.50;;
10596;SDS011;5346;48.766;8.674;2023-05-14T05:32:36;16.67;;;10.38;;
10596;SDS011;5346;48.766;8.674;2023-05-14T05:35:04;16.50;;;10.30;;
10596;SDS011;5346;48.766;8.674;2023-05-14T05:37:38;11.15;;;9.32;;
10596;SDS011;5346;48.766;8.674;2023-05-14T05:40:07;9.23;;;8.27;;
10596;SDS011;5346;48.766;8.674;2023-05-14T05:42:42;11.35;;;9.68;;
10596;SDS011;5346;48.766;8.674;2023-05-14T05:45:16;12.23;;;9.88;;
10596;SDS011;5346;48.766;8.674;2023-05-14T05:47:50;12.07;;;8.75;;
10596;SDS011;5346;48.766;8.674;2023-05-14T05:50:18;10.98;;;9.82;;
10596;SDS011;5346;48.766;8.674;2023-05-14T05:52:51;10.80;;;9.65;;
10596;SDS011;5346;48.766;8.674;2023-05-14T05:55:18;10.18;;;8.80;;
10596;SDS011;5346;48.766;8.674;2023-05-14T05:57:52;11.77;;;9.90;;
10596;SDS011;5346;48.766;8.674;2023-05-14T06:00:23;12.20;;;9.05;;
10596;SDS011;5346;48.766;8.674;2023-05-14T06:02:58;10.90;;;9.02;;
10596;SDS011;5346;48.766;8.674;2023-05-14T06:05:33;13.52;;;9.07;;
10596;SDS011;5346;48.766;8.674;2023-05-14T06:08:08;8.68;;;7.78;;
10596;SDS011;5346;48.766;8.674;2023-05-14T06:10:36;13.70;;;8.98;;
10596;SDS011;5346;48.766;8.674;2023-05-14T06:13:13;10.00;;;8.35;;
10596;SDS011;5346;48.766;8.674;2023-05-14T06:15:47;8.63;;;7.72;;
10596;SDS011;5346;48.766;8.674;2023-05-14T06:18:21;9.73;;;8.48;;
10596;SDS011;5346;48.766;8.674;2023-05-14T06:20:55;11.13;;;8.93;;
10596;SDS011;5346;48.766;8.674;2023-05-14T06:23:32;9.93;;;8.40;;
10596;SDS011;5346;48.766;8.674;2023-05-14T06:26:00;13.07;;;8.60;;
10596;SDS011;5346;48.766;8.674;2023-05-14T06:28:33;9.15;;;7.93;;
10596;SDS011;5346;48.766;8.674;2023-05-14T06:31:02;9.38;;;7.80;;
10596;SDS011;5346;48.766;8.674;2023-05-14T06:33:36;13.93;;;8.57;;
10596;SDS011;5346;48.766;8.674;2023-05-14T06:36:10;9.73;;;8.65;;
10596;SDS011;5346;48.766;8.674;2023-05-14T06:38:37;8.80;;;7.90;;
10596;SDS011;5346;48.766;8.674;2023-05-14T06:41:11;11.73;;;8.02;;
10596;SDS011;5346;48.766;8.674;2023-05-14T06:43:39;8.80;;;7.90;;
10596;SDS011;5346;48.766;8.674;2023-05-14T06:46:14;8.77;;;7.88;;
10596;SDS011;5346;48.766;8.674;2023-05-14T06:48:42;11.77;;;8.75;;
10596;SDS011;5346;48.766;8.674;2023-05-14T06:51:16;8.98;;;6.97;;
10596;SDS011;5346;48.766;8.674;2023-05-14T06:53:44;8.13;;;7.32;;
10596;SDS011;5346;48.766;8.674;2023-05-14T06:56:20;9.23;;;7.57;;
10596;SDS011;5346;48.766;8.674;2023-05-14T06:58:48;12.30;;;8.20;;
10596;SDS011;5346;48.766;8.674;2023-05-14T07:01:24;9.98;;;8.25;;
10596;SDS011;5346;48.766;8.674;2023-05-14T07:03:58;9.73;;;8.18;;
10596;SDS011;5346;48.766;8.674;2023-05-14T07:06:31;10.63;;;8.10;;
10596;SDS011;5346;48.766;8.674;2023-05-14T07:09:13;10.20;;;8.35;;
10596;SDS011;5346;48.766;8.674;2023-05-14T07:11:41;12.43;;;8.98;;
10596;SDS011;5346;48.766;8.674;2023-05-14T07:14:15;10.05;;;7.90;;
10596;SDS011;5346;48.766;8.674;2023-05-14T07:16:49;9.70;;;7.80;;
10596;SDS011;5346;48.766;8.674;2023-05-14T07:19:24;9.32;;;8.25;;
10596;SDS011;5346;48.766;8.674;2023-05-14T07:22:00;8.40;;;7.50;;
10596;SDS011;5346;48.766;8.674;2023-05-14T07:24:35;9.43;;;8.43;;
10596;SDS011;5346;48.766;8.674;2023-05-14T07:27:02;9.30;;;7.82;;
10596;SDS011;5346;48.766;8.674;2023-05-14T07:29:37;9.30;;;7.65;;
10596;SDS011;5346;48.766;8.674;2023-05-14T07:32:05;9.40;;;8.40;;
10596;SDS011;5346;48.766;8.674;2023-05-14T07:34:41;8.60;;;7.70;;
10596;SDS011;5346;48.766;8.674;2023-05-14T07:37:11;9.70;;;7.38;;
10596;SDS011;5346;48.766;8.674;2023-05-14T07:39:45;9.35;;;8.27;;
10596;SDS011;5346;48.766;8.674;2023-05-14T07:42:13;8.02;;;7.10;;
10596;SDS011;5346;48.766;8.674;2023-05-14T07:45:01;8.90;;;7.43;;
10596;SDS011;5346;48.766;8.674;2023-05-14T07:47:36;9.43;;;7.45;;
10596;SDS011;5346;48.766;8.674;2023-05-14T07:50:13;7.97;;;7.05;;
10596;SDS011;5346;48.766;8.674;2023-05-14T07:52:41;7.15;;;6.28;;
10596;SDS011;5346;48.766;8.674;2023-05-14T07:55:08;6.90;;;6.28;;
10596;SDS011;5346;48.766;8.674;2023-05-14T07:57:49;8.00;;;6.32;;
10596;SDS011;5346;48.766;8.674;2023-05-14T08:00:17;7.80;;;6.65;;
10596;SDS011;5346;48.766;8.674;2023-05-14T08:02:59;8.45;;;6.50;;
10596;SDS011;5346;48.766;8.674;2023-05-14T08:05:40;7.30;;;6.43;;
10596;SDS011;5346;48.766;8.674;2023-05-14T08:08:13;14.95;;;6.72;;
10596;SDS011;5346;48.766;8.674;2023-05-14T08:10:41;7.68;;;6.55;;
10596;SDS011;5346;48.766;8.674;2023-05-14T08:13:16;10.25;;;6.38;;
10596;SDS011;5346;48.766;8.674;2023-05-14T08:15:44;7.25;;;5.95;;
10596;SDS011;5346;48.766;8.674;2023-05-14T08:18:18;8.43;;;5.95;;
10596;SDS011;5346;48.766;8.674;2023-05-14T08:20:46;9.50;;;6.03;;
10596;SDS011;5346;48.766;8.674;2023-05-14T08:23:21;6.63;;;6.03;;
10596;SDS011;5346;48.766;8.674;2023-05-14T08:25:49;7.05;;;6.28;;
10596;SDS011;5346;48.766;8.674;2023-05-14T08:28:24;9.43;;;5.55;;
10596;SDS011;5346;48.766;8.674;2023-05-14T08:30:51;8.35;;;6.28;;
10596;SDS011;5346;48.766;8.674;2023-05-14T08:33:24;6.20;;;5.60;;
10596;SDS011;5346;48.766;8.674;2023-05-14T08:35:52;5.30;;;4.80;;
10596;SDS011;5346;48.766;8.674;2023-05-14T08:38:27;6.90;;;5.57;;
10596;SDS011;5346;48.766;8.674;2023-05-14T08:41:00;6.72;;;5.45;;
10596;SDS011;5346;48.766;8.674;2023-05-14T08:43:43;5.57;;;4.95;;
10596;SDS011;5346;48.766;8.674;2023-05-14T08:46:50;5.20;;;4.68;;
10596;SDS011;5346;48.766;8.674;2023-05-14T08:52:15;5.40;;;4.90;;
10596;SDS011;5346;48.766;8.674;2023-05-14T08:54:53;5.15;;;4.35;;
10596;SDS011;5346;48.766;8.674;2023-05-14T08:57:32;4.55;;;3.75;;
10596;SDS011;5346;48.766;8.674;2023-05-14T09:00:07;4.63;;;4.22;;
10596;SDS011;5346;48.766;8.674;2023-05-14T09:02:39;3.30;;;2.95;;
10596;SDS011;5346;48.766;8.674;2023-05-14T09:05:21;4.80;;;4.38;;
10596;SDS011;5346;48.766;8.674;2023-05-14T09:07:57;5.47;;;4.40;;
10596;SDS011;5346;48.766;8.674;2023-05-14T09:10:32;4.32;;;3.85;;
10596;SDS011;5346;48.766;8.674;2023-05-14T09:13:06;4.07;;;3.65;;
10596;SDS011;5346;48.766;8.674;2023-05-14T09:15:42;3.28;;;3.05;;
10596;SDS011;5346;48.766;8.674;2023-05-14T09:18:16;3.47;;;3.17;;
10596;SDS011;5346;48.766;8.674;2023-05-14T09:20:49;6.00;;;2.80;;
10596;SDS011;5346;48.766;8.674;2023-05-14T09:23:18;5.07;;;4.63;;
10596;SDS011;5346;48.766;8.674;2023-05-14T09:25:51;5.13;;;4.55;;
10596;SDS011;5346;48.766;8.674;2023-05-14T09:28:19;5.43;;;4.68;;
10596;SDS011;5346;48.766;8.674;2023-05-14T09:30:57;6.10;;;5.50;;
10596;SDS011;5346;48.766;8.674;2023-05-14T09:33:32;8.00;;;5.63;;
10596;SDS011;5346;48.766;8.674;2023-05-14T09:36:05;5.40;;;4.82;;
10596;SDS011;5346;48.766;8.674;2023-05-14T09:38:39;5.60;;;5.00;;
10596;SDS011;5346;48.766;8.674;2023-05-14T09:41:15;5.40;;;4.75;;
10596;SDS011;5346;48.766;8.674;2023-05-14T09:43:43;6.72;;;4.80;;
10596;SDS011;5346;48.766;8.674;2023-05-14T09:46:17;5.60;;;4.78;;
10596;SDS011;5346;48.766;8.674;2023-05-14T09:48:44;4.85;;;4.40;;
10596;SDS011;5346;48.766;8.674;2023-05-14T09:51:19;6.88;;;4.85;;
10596;SDS011;5346;48.766;8.674;2023-05-14T09:53:46;6.15;;;4.60;;
10596;SDS011;5346;48.766;8.674;2023-05-14T09:56:21;7.00;;;5.40;;
10596;SDS011;5346;48.766;8.674;2023-05-14T09:58:49;5.28;;;4.75;;
10596;SDS011;5346;48.766;8.674;2023-05-14T10:01:24;4.97;;;4.47;;
10596;SDS011;5346;48.766;8.674;2023-05-14T10:03:58;6.18;;;4.45;;
10596;SDS011;5346;48.766;8.674;2023-05-14T10:06:49;5.80;;;4.32;;
10596;SDS011;5346;48.766;8.674;2023-05-14T10:09:24;5.93;;;4.43;;
10596;SDS011;5346;48.766;8.674;2023-05-14T10:11:57;4.30;;;3.90;;
10596;SDS011;5346;48.766;8.674;2023-05-14T10:14:40;4.43;;;4.03;;
10596;SDS011;5346;48.766;8.674;2023-05-14T10:17:16;4.95;;;4.45;;
10596;SDS011;5346;48.766;8.674;2023-05-14T10:19:54;4.88;;;4.38;;
10596;SDS011;5346;48.766;8.674;2023-05-14T10:22:26;5.18;;;4.68;;
10596;SDS011;5346;48.766;8.674;2023-05-14T10:25:03;5.30;;;4.40;;
10596;SDS011;5346;48.766;8.674;2023-05-14T10:27:39;5.47;;;4.97;;
10596;SDS011;5346;48.766;8.674;2023-05-14T10:30:16;4.97;;;4.18;;
10596;SDS011;5346;48.766;8.674;2023-05-14T10:33:12;7.03;;;4.03;;
10596;SDS011;5346;48.766;8.674;2023-05-14T10:38:33;8.68;;;5.43;;
10596;SDS011;5346;48.766;8.674;2023-05-14T10:41:10;7.80;;;5.53;;
10596;SDS011;5346;48.766;8.674;2023-05-14T10:43:43;6.40;;;5.65;;
10596;SDS011;5346;48.766;8.674;2023-05-14T10:46:16;12.60;;;6.18;;
10596;SDS011;5346;48.766;8.674;2023-05-14T10:48:43;10.02;;;6.93;;
10596;SDS011;5346;48.766;8.674;2023-05-14T10:51:17;9.20;;;7.03;;
10596;SDS011;5346;48.766;8.674;2023-05-14T10:53:48;8.68;;;7.13;;
10596;SDS011;5346;48.766;8.674;2023-05-14T10:56:21;10.40;;;7.03;;
10596;SDS011;5346;48.766;8.674;2023-05-14T10:58:48;7.75;;;6.88;;
10596;SDS011;5346;48.766;8.674;2023-05-14T11:01:22;5.82;;;5.32;;
10596;SDS011;5346;48.766;8.674;2023-05-14T11:03:56;5.68;;;4.60;;
10596;SDS011;5346;48.766;8.674;2023-05-14T11:06:45;5.68;;;4.40;;
10596;SDS011;5346;48.766;8.674;2023-05-14T11:09:20;5.93;;;4.20;;
10596;SDS011;5346;48.766;8.674;2023-05-14T11:11:49;4.97;;;4.30;;
10596;SDS011;5346;48.766;8.674;2023-05-14T11:14:22;4.43;;;4.03;;
10596;SDS011;5346;48.766;8.674;2023-05-14T11:16:56;5.40;;;4.13;;
10596;SDS011;5346;48.766;8.674;2023-05-14T11:19:31;5.60;;;4.65;;
10596;SDS011;5346;48.766;8.674;2023-05-14T11:22:04;4.50;;;4.05;;
10596;SDS011;5346;48.766;8.674;2023-05-14T11:24:39;4.82;;;4.38;;
10596;SDS011;5346;48.766;8.674;2023-05-14T11:27:13;5.25;;;4.75;;
10596;SDS011;5346;48.766;8.674;2023-05-14T11:29:44;5.28;;;4.38;;
10596;SDS011;5346;48.766;8.674;2023-05-14T11:32:19;5.07;;;4.57;;
10596;SDS011;5346;48.766;8.674;2023-05-14T11:34:53;5.05;;;4.55;;
10596;SDS011;5346;48.766;8.674;2023-05-14T11:37:27;5.45;;;4.15;;
10596;SDS011;5346;48.766;8.674;2023-05-14T11:40:05;4.00;;;3.60;;
10596;SDS011;5346;48.766;8.674;2023-05-14T11:42:45;4.03;;;3.60;;
10596;SDS011;5346;48.766;8.674;2023-05-14T11:45:23;4.35;;;3.72;;
10596;SDS011;5346;48.766;8.674;2023-05-14T11:48:02;4.60;;;4.18;;
10596;SDS011;5346;48.766;8.674;2023-05-14T11:50:43;4.53;;;4.13;;
10596;SDS011;5346;48.766;8.674;2023-05-14T11:53:26;5.75;;;4.50;;
10596;SDS011;5346;48.766;8.674;2023-05-14T11:55:56;9.82;;;5.20;;
10596;SDS011;5346;48.766;8.674;2023-05-14T11:58:34;5.25;;;4.70;;
10596;SDS011;5346;48.766;8.674;2023-05-14T12:01:07;5.38;;;4.88;;
10596;SDS011;5346;48.766;8.674;2023-05-14T12:03:46;5.15;;;4.70;;
10596;SDS011;5346;48.766;8.674;2023-05-14T12:06:20;7.95;;;5.50;;
10596;SDS011;5346;48.766;8.674;2023-05-14T12:09:03;5.68;;;5.18;;
10596;SDS011;5346;48.766;8.674;2023-05-14T12:11:37;7.05;;;5.18;;
10596;SDS011;5346;48.766;8.674;2023-05-14T12:14:21;5.38;;;4.88;;
10596;SDS011;5346;48.766;8.674;2023-05-14T12:16:55;7.43;;;5.00;;
10596;SDS011;5346;48.766;8.674;2023-05-14T12:19:29;5.70;;;5.07;;
10596;SDS011;5346;48.766;8.674;2023-05-14T12:22:03;6.10;;;4.40;;
10596;SDS011;5346;48.766;8.674;2023-05-14T12:24:37;5.78;;;5.28;;
10596;SDS011;5346;48.766;8.674;2023-05-14T12:27:06;6.30;;;5.32;;
10596;SDS011;5346;48.766;8.674;2023-05-14T12:29:41;5.80;;;5.30;;
10596;SDS011;5346;48.766;8.674;2023-05-14T12:32:15;6.38;;;4.90;;
10596;SDS011;5346;48.766;8.674;2023-05-14T12:34:43;5.43;;;4.80;;
10596;SDS011;5346;48.766;8.674;2023-05-14T12:37:17;6.72;;;4.85;;
10596;SDS011;5346;48.766;8.674;2023-05-14T12:39:44;4.97;;;4.47;;
10596;SDS011;5346;48.766;8.674;2023-05-14T12:42:13;4.85;;;4.40;;
10596;SDS011;5346;48.766;8.674;2023-05-14T12:44:48;4.72;;;4.22;;
10596;SDS011;5346;48.766;8.674;2023-05-14T12:47:15;4.50;;;4.10;;
10596;SDS011;5346;48.766;8.674;2023-05-14T12:49:49;4.95;;;3.92;;
10596;SDS011;5346;48.766;8.674;2023-05-14T12:52:23;3.90;;;3.53;;
10596;SDS011;5346;48.766;8.674;2023-05-14T12:55:03;4.20;;;3.80;;
10596;SDS011;5346;48.766;8.674;2023-05-14T12:57:42;4.35;;;3.95;;
10596;SDS011;5346;48.766;8.674;2023-05-14T13:00:09;4.97;;;3.38;;
10596;SDS011;5346;48.766;8.674;2023-05-14T13:02:43;3.88;;;3.17;;
10596;SDS011;5346;48.766;8.674;2023-05-14T13:05:24;4.22;;;3.75;;
10596;SDS011;5346;48.766;8.674;2023-05-14T13:08:04;3.45;;;3.15;;
10596;SDS011;5346;48.766;8.674;2023-05-14T13:10:38;3.63;;;3.30;;
10596;SDS011;5346;48.766;8.674;2023-05-14T13:13:06;3.65;;;3.35;;
10596;SDS011;5346;48.766;8.674;2023-05-14T13:15:40;3.55;;;3.25;;
10596;SDS011;5346;48.766;8.674;2023-05-14T13:18:09;3.85;;;3.45;;
10596;SDS011;5346;48.766;8.674;2023-05-14T13:20:45;3.63;;;3.33;;
10596;SDS011;5346;48.766;8.674;2023-05-14T13:23:22;4.28;;;3.45;;
10596;SDS011;5346;48.766;8.674;2023-05-14T13:25:49;5.22;;;3.88;;
10596;SDS011;5346;48.766;8.674;2023-05-14T13:28:23;5.00;;;4.05;;
10596;SDS011;5346;48.766;8.674;2023-05-14T13:31:03;4.57;;;4.15;;
10596;SDS011;5346;48.766;8.674;2023-05-14T13:33:42;6.18;;;4.10;;
10596;SDS011;5346;48.766;8.674;2023-05-14T13:36:16;5.60;;;5.10;;
10596;SDS011;5346;48.766;8.674;2023-05-14T13:38:45;6.38;;;5.03;;
10596;SDS011;5346;48.766;8.674;2023-05-14T13:41:18;6.93;;;5.50;;
10596;SDS011;5346;48.766;8.674;2023-05-14T13:43:46;6.47;;;5.78;;
10596;SDS011;5346;48.766;8.674;2023-05-14T13:46:20;6.78;;;6.07;;
10596;SDS011;5346;48.766;8.674;2023-05-14T13:48:48;8.40;;;5.43;;
10596;SDS011;5346;48.766;8.674;2023-05-14T13:51:15;7.65;;;6.13;;
10596;SDS011;5346;48.766;8.674;2023-05-14T13:53:50;6.43;;;5.82;;
10596;SDS011;5346;48.766;8.674;2023-05-14T13:56:17;7.00;;;6.28;;
10596;SDS011;5346;48.766;8.674;2023-05-14T13:58:51;7.25;;;6.55;;
10596;SDS011;5346;48.766;8.674;2023-05-14T14:01:18;7.32;;;6.55;;
10596;SDS011;5346;48.766;8.674;2023-05-14T14:03:59;7.15;;;5.97;;
10596;SDS011;5346;48.766;8.674;2023-05-14T14:06:39;8.15;;;6.28;;
10596;SDS011;5346;48.766;8.674;2023-05-14T14:09:13;7.03;;;6.32;;
10596;SDS011;5346;48.766;8.674;2023-05-14T14:11:47;7.75;;;6.30;;
10596;SDS011;5346;48.766;8.674;2023-05-14T14:14:28;6.30;;;5.55;;
10596;SDS011;5346;48.766;8.674;2023-05-14T14:17:02;8.07;;;5.63;;
10596;SDS011;5346;48.766;8.674;2023-05-14T14:19:36;6.88;;;6.18;;
10596;SDS011;5346;48.766;8.674;2023-05-14T14:22:03;6.00;;;5.40;;
10596;SDS011;5346;48.766;8.674;2023-05-14T14:24:37;6.47;;;5.80;;
10596;SDS011;5346;48.766;8.674;2023-05-14T14:27:04;6.65;;;6.05;;
10596;SDS011;5346;48.766;8.674;2023-05-14T14:29:38;6.78;;;5.95;;
10596;SDS011;5346;48.766;8.674;2023-05-14T14:32:12;6.90;;;5.88;;
10596;SDS011;5346;48.766;8.674;2023-05-14T14:34:45;7.10;;;6.25;;
10596;SDS011;5346;48.766;8.674;2023-05-14T14:37:19;7.53;;;5.45;;
10596;SDS011;5346;48.766;8.674;2023-05-14T14:39:48;6.15;;;5.55;;
10596;SDS011;5346;48.766;8.674;2023-05-14T14:42:21;7.03;;;5.22;;
10596;SDS011;5346;48.766;8.674;2023-05-14T14:44:48;5.57;;;4.95;;
10596;SDS011;5346;48.766;8.674;2023-05-14T14:47:22;6.25;;;5.65;;
10596;SDS011;5346;48.766;8.674;2023-05-14T14:49:49;6.97;;;5.35;;
10596;SDS011;5346;48.766;8.674;2023-05-14T14:52:23;5.05;;;4.53;;
10596;SDS011;5346;48.766;8.674;2023-05-14T14:54:52;5.68;;;5.18;;
10596;SDS011;5346;48.766;8.674;2023-05-14T14:57:27;5.90;;;5.10;;
10596;SDS011;5346;48.766;8.674;2023-05-14T14:59:54;9.57;;;5.32;;
10596;SDS011;5346;48.766;8.674;2023-05-14T15:02:28;6.72;;;5.07;;
10596;SDS011;5346;48.766;8.674;2023-05-14T15:05:02;7.18;;;5.00;;
10596;SDS011;5346;48.766;8.674;2023-05-14T15:07:36;6.15;;;5.28;;
10596;SDS011;5346;48.766;8.674;2023-05-14T15:10:17;8.45;;;5.43;;
10596;SDS011;5346;48.766;8.674;2023-05-14T15:12:51;6.70;;;5.13;;
10596;SDS011;5346;48.766;8.674;2023-05-14T15:15:19;5.10;;;4.60;;
10596;SDS011;5346;48.766;8.674;2023-05-14T15:17:53;5.60;;;5.10;;
10596;SDS011;5346;48.766;8.674;2023-05-14T15:20:21;6.13;;;5.07;;
10596;SDS011;5346;48.766;8.674;2023-05-14T15:22:54;6.00;;;5.15;;
10596;SDS011;5346;48.766;8.674;2023-05-14T15:25:22;5.70;;;5.15;;
10596;SDS011;5346;48.766;8.674;2023-05-14T15:27:58;5.78;;;4.95;;
10596;SDS011;5346;48.766;8.674;2023-05-14T15:30:25;7.45;;;5.25;;
10596;SDS011;5346;48.766;8.674;2023-05-14T15:32:54;5.32;;;4.82;;
10596;SDS011;5346;48.766;8.674;2023-05-14T15:35:27;4.45;;;4.05;;
10596;SDS011;5346;48.766;8.674;2023-05-14T15:37:55;4.50;;;4.10;;
10596;SDS011;5346;48.766;8.674;2023-05-14T15:40:28;6.47;;;4.15;;
10596;SDS011;5346;48.766;8.674;2023-05-14T15:42:56;4.05;;;3.65;;
10596;SDS011;5346;48.766;8.674;2023-05-14T15:45:23;3.80;;;3.40;;